Terminal Aerodrome Forecast
Issued by NWS

Current Version | Previous Version | Text Only | Print | Product List | Glossary On
Versions: 1 2 3 4 5 6 7 8 9 10 11 12 13 14 15 16
000
FTUS43 KSGF 111700
TAFBBG
TAF
KBBG 111720Z 1118/1218 20006KT P6SM FEW040 SCT150
     FM120100 VRB03KT P6SM SCT250
     FM121600 22010KT P6SM FEW250=

USA.gov is the U.S. government's official web portal to all federal, state and local government web resources and services.